sensor_id;sensor_type;location;lat;lon;timestamp;P1;durP1;ratioP1;P2;durP2;ratioP2
21356;SDS011;10836;53.068;18.234;2022-11-15T00:01:34;127.40;;;52.27;;
21356;SDS011;10836;53.068;18.234;2022-11-15T00:04:21;133.13;;;53.10;;
21356;SDS011;10836;53.068;18.234;2022-11-15T00:07:06;132.70;;;54.03;;
21356;SDS011;10836;53.068;18.234;2022-11-15T00:09:52;135.10;;;53.87;;
21356;SDS011;10836;53.068;18.234;2022-11-15T00:12:38;134.80;;;51.10;;
21356;SDS011;10836;53.068;18.234;2022-11-15T00:15:24;139.57;;;51.43;;
21356;SDS011;10836;53.068;18.234;2022-11-15T00:18:12;145.67;;;55.63;;
21356;SDS011;10836;53.068;18.234;2022-11-15T00:21:05;152.37;;;57.67;;
21356;SDS011;10836;53.068;18.234;2022-11-15T00:23:58;138.10;;;51.17;;
21356;SDS011;10836;53.068;18.234;2022-11-15T00:26:44;149.57;;;54.43;;
21356;SDS011;10836;53.068;18.234;2022-11-15T00:29:30;137.57;;;54.83;;
21356;SDS011;10836;53.068;18.234;2022-11-15T00:32:16;148.10;;;55.90;;
21356;SDS011;10836;53.068;18.234;2022-11-15T00:35:01;149.67;;;53.33;;
21356;SDS011;10836;53.068;18.234;2022-11-15T00:37:47;160.97;;;59.57;;
21356;SDS011;10836;53.068;18.234;2022-11-15T00:40:33;160.33;;;58.87;;
21356;SDS011;10836;53.068;18.234;2022-11-15T00:43:19;167.43;;;60.00;;
21356;SDS011;10836;53.068;18.234;2022-11-15T00:46:05;156.13;;;56.47;;
21356;SDS011;10836;53.068;18.234;2022-11-15T00:48:52;167.80;;;62.80;;
21356;SDS011;10836;53.068;18.234;2022-11-15T00:51:38;153.13;;;57.70;;
21356;SDS011;10836;53.068;18.234;2022-11-15T00:54:23;153.83;;;56.60;;
21356;SDS011;10836;53.068;18.234;2022-11-15T00:57:09;166.70;;;58.90;;
21356;SDS011;10836;53.068;18.234;2022-11-15T00:59:55;170.30;;;58.90;;
21356;SDS011;10836;53.068;18.234;2022-11-15T01:02:40;163.83;;;57.43;;
21356;SDS011;10836;53.068;18.234;2022-11-15T01:05:27;170.97;;;58.17;;
21356;SDS011;10836;53.068;18.234;2022-11-15T01:08:13;167.27;;;59.03;;
21356;SDS011;10836;53.068;18.234;2022-11-15T01:11:04;172.93;;;60.07;;
21356;SDS011;10836;53.068;18.234;2022-11-15T01:13:51;172.87;;;57.40;;
21356;SDS011;10836;53.068;18.234;2022-11-15T01:16:37;183.20;;;60.23;;
21356;SDS011;10836;53.068;18.234;2022-11-15T01:19:24;199.83;;;63.83;;
21356;SDS011;10836;53.068;18.234;2022-11-15T01:22:12;174.93;;;61.93;;
21356;SDS011;10836;53.068;18.234;2022-11-15T01:24:58;188.47;;;63.70;;
21356;SDS011;10836;53.068;18.234;2022-11-15T01:27:44;196.90;;;64.57;;
21356;SDS011;10836;53.068;18.234;2022-11-15T01:30:29;198.20;;;65.23;;
21356;SDS011;10836;53.068;18.234;2022-11-15T01:33:15;185.27;;;60.83;;
21356;SDS011;10836;53.068;18.234;2022-11-15T01:36:08;177.03;;;59.03;;
21356;SDS011;10836;53.068;18.234;2022-11-15T01:38:58;185.33;;;60.47;;
21356;SDS011;10836;53.068;18.234;2022-11-15T01:41:44;188.33;;;61.00;;
21356;SDS011;10836;53.068;18.234;2022-11-15T01:50:06;189.53;;;58.90;;
21356;SDS011;10836;53.068;18.234;2022-11-15T01:52:55;186.77;;;61.33;;
21356;SDS011;10836;53.068;18.234;2022-11-15T01:55:41;192.90;;;64.10;;
21356;SDS011;10836;53.068;18.234;2022-11-15T01:58:27;208.53;;;63.63;;
21356;SDS011;10836;53.068;18.234;2022-11-15T02:01:13;209.13;;;61.20;;
21356;SDS011;10836;53.068;18.234;2022-11-15T02:04:13;210.13;;;62.43;;
21356;SDS011;10836;53.068;18.234;2022-11-15T02:07:12;192.70;;;62.60;;
21356;SDS011;10836;53.068;18.234;2022-11-15T02:10:04;218.30;;;63.40;;
21356;SDS011;10836;53.068;18.234;2022-11-15T02:12:54;212.13;;;61.93;;
21356;SDS011;10836;53.068;18.234;2022-11-15T02:15:45;201.40;;;59.30;;
21356;SDS011;10836;53.068;18.234;2022-11-15T02:19:10;186.67;;;58.67;;
21356;SDS011;10836;53.068;18.234;2022-11-15T02:34:50;207.10;;;60.63;;
21356;SDS011;10836;53.068;18.234;2022-11-15T02:37:54;210.43;;;60.53;;
21356;SDS011;10836;53.068;18.234;2022-11-15T02:46:50;194.67;;;54.73;;
21356;SDS011;10836;53.068;18.234;2022-11-15T02:49:59;170.17;;;50.33;;
21356;SDS011;10836;53.068;18.234;2022-11-15T02:52:50;179.10;;;53.73;;
21356;SDS011;10836;53.068;18.234;2022-11-15T02:55:37;192.30;;;55.13;;
21356;SDS011;10836;53.068;18.234;2022-11-15T03:01:20;177.53;;;52.33;;
21356;SDS011;10836;53.068;18.234;2022-11-15T03:04:35;188.47;;;52.43;;
21356;SDS011;10836;53.068;18.234;2022-11-15T03:07:29;201.90;;;56.60;;
21356;SDS011;10836;53.068;18.234;2022-11-15T03:10:26;199.97;;;53.40;;
21356;SDS011;10836;53.068;18.234;2022-11-15T03:16:31;231.37;;;57.70;;
21356;SDS011;10836;53.068;18.234;2022-11-15T03:19:44;222.33;;;59.70;;
21356;SDS011;10836;53.068;18.234;2022-11-15T03:22:36;219.90;;;57.10;;
21356;SDS011;10836;53.068;18.234;2022-11-15T03:25:26;247.77;;;55.33;;
21356;SDS011;10836;53.068;18.234;2022-11-15T03:28:20;204.77;;;55.23;;
21356;SDS011;10836;53.068;18.234;2022-11-15T03:31:09;205.77;;;56.13;;
21356;SDS011;10836;53.068;18.234;2022-11-15T03:37:15;199.33;;;52.00;;
21356;SDS011;10836;53.068;18.234;2022-11-15T03:40:03;231.00;;;56.57;;
21356;SDS011;10836;53.068;18.234;2022-11-15T03:43:05;207.90;;;55.40;;
21356;SDS011;10836;53.068;18.234;2022-11-15T03:48:52;211.87;;;56.00;;
21356;SDS011;10836;53.068;18.234;2022-11-15T03:51:42;215.57;;;55.27;;
21356;SDS011;10836;53.068;18.234;2022-11-15T03:54:29;240.23;;;58.83;;
21356;SDS011;10836;53.068;18.234;2022-11-15T03:57:14;215.57;;;55.00;;
21356;SDS011;10836;53.068;18.234;2022-11-15T04:00:00;225.87;;;58.57;;
21356;SDS011;10836;53.068;18.234;2022-11-15T04:02:46;221.73;;;58.17;;
21356;SDS011;10836;53.068;18.234;2022-11-15T04:05:32;212.73;;;54.30;;
21356;SDS011;10836;53.068;18.234;2022-11-15T04:08:17;225.27;;;56.07;;
21356;SDS011;10836;53.068;18.234;2022-11-15T04:11:03;251.07;;;58.00;;
21356;SDS011;10836;53.068;18.234;2022-11-15T04:13:48;242.10;;;57.17;;
21356;SDS011;10836;53.068;18.234;2022-11-15T04:16:34;249.33;;;59.17;;
21356;SDS011;10836;53.068;18.234;2022-11-15T04:19:27;216.67;;;59.80;;
21356;SDS011;10836;53.068;18.234;2022-11-15T04:22:32;227.97;;;57.33;;
21356;SDS011;10836;53.068;18.234;2022-11-15T04:25:35;212.83;;;54.30;;
21356;SDS011;10836;53.068;18.234;2022-11-15T04:28:22;206.47;;;55.37;;
21356;SDS011;10836;53.068;18.234;2022-11-15T04:31:07;205.07;;;50.03;;
21356;SDS011;10836;53.068;18.234;2022-11-15T04:33:53;181.30;;;51.50;;
21356;SDS011;10836;53.068;18.234;2022-11-15T04:36:39;182.60;;;49.03;;
21356;SDS011;10836;53.068;18.234;2022-11-15T04:39:44;190.27;;;51.40;;
21356;SDS011;10836;53.068;18.234;2022-11-15T04:42:29;219.10;;;55.93;;
21356;SDS011;10836;53.068;18.234;2022-11-15T04:45:15;203.17;;;51.23;;
21356;SDS011;10836;53.068;18.234;2022-11-15T04:48:00;203.07;;;53.53;;
21356;SDS011;10836;53.068;18.234;2022-11-15T04:50:49;211.90;;;50.57;;
21356;SDS011;10836;53.068;18.234;2022-11-15T04:53:35;195.10;;;51.73;;
21356;SDS011;10836;53.068;18.234;2022-11-15T04:56:20;212.03;;;51.47;;
21356;SDS011;10836;53.068;18.234;2022-11-15T04:59:06;191.40;;;49.73;;
21356;SDS011;10836;53.068;18.234;2022-11-15T05:01:53;212.77;;;52.77;;
21356;SDS011;10836;53.068;18.234;2022-11-15T05:04:39;217.70;;;53.47;;
21356;SDS011;10836;53.068;18.234;2022-11-15T05:07:25;220.20;;;54.30;;
21356;SDS011;10836;53.068;18.234;2022-11-15T05:10:11;225.50;;;55.33;;
21356;SDS011;10836;53.068;18.234;2022-11-15T05:12:57;217.83;;;52.83;;
21356;SDS011;10836;53.068;18.234;2022-11-15T05:15:44;250.00;;;56.90;;
21356;SDS011;10836;53.068;18.234;2022-11-15T05:18:29;257.53;;;55.63;;
21356;SDS011;10836;53.068;18.234;2022-11-15T05:21:15;232.07;;;53.73;;
21356;SDS011;10836;53.068;18.234;2022-11-15T05:24:01;222.70;;;52.00;;
21356;SDS011;10836;53.068;18.234;2022-11-15T05:26:47;235.83;;;54.07;;
21356;SDS011;10836;53.068;18.234;2022-11-15T05:29:33;208.50;;;52.67;;
21356;SDS011;10836;53.068;18.234;2022-11-15T05:32:18;225.67;;;54.33;;
21356;SDS011;10836;53.068;18.234;2022-11-15T05:35:04;236.73;;;54.67;;
21356;SDS011;10836;53.068;18.234;2022-11-15T05:37:54;231.77;;;55.17;;
21356;SDS011;10836;53.068;18.234;2022-11-15T05:40:39;236.80;;;55.00;;
21356;SDS011;10836;53.068;18.234;2022-11-15T05:43:25;247.07;;;54.63;;
21356;SDS011;10836;53.068;18.234;2022-11-15T05:46:13;232.27;;;53.47;;
21356;SDS011;10836;53.068;18.234;2022-11-15T05:48:59;245.47;;;55.77;;
21356;SDS011;10836;53.068;18.234;2022-11-15T05:51:45;243.30;;;54.77;;
21356;SDS011;10836;53.068;18.234;2022-11-15T05:54:33;241.43;;;55.97;;
21356;SDS011;10836;53.068;18.234;2022-11-15T05:57:22;228.70;;;56.07;;
21356;SDS011;10836;53.068;18.234;2022-11-15T06:00:07;206.27;;;53.17;;
21356;SDS011;10836;53.068;18.234;2022-11-15T06:02:54;204.33;;;51.57;;
21356;SDS011;10836;53.068;18.234;2022-11-15T06:05:40;201.53;;;53.47;;
21356;SDS011;10836;53.068;18.234;2022-11-15T06:08:26;194.07;;;49.93;;
21356;SDS011;10836;53.068;18.234;2022-11-15T06:11:13;195.70;;;51.97;;
21356;SDS011;10836;53.068;18.234;2022-11-15T06:13:59;203.33;;;51.47;;
21356;SDS011;10836;53.068;18.234;2022-11-15T06:16:44;193.47;;;50.73;;
21356;SDS011;10836;53.068;18.234;2022-11-15T06:19:30;207.73;;;49.60;;
21356;SDS011;10836;53.068;18.234;2022-11-15T06:22:17;205.37;;;51.93;;
21356;SDS011;10836;53.068;18.234;2022-11-15T06:25:03;221.90;;;53.07;;
21356;SDS011;10836;53.068;18.234;2022-11-15T06:27:53;209.50;;;53.47;;
21356;SDS011;10836;53.068;18.234;2022-11-15T06:30:40;217.87;;;52.77;;
21356;SDS011;10836;53.068;18.234;2022-11-15T06:33:26;214.50;;;56.37;;
21356;SDS011;10836;53.068;18.234;2022-11-15T06:36:13;216.53;;;52.27;;
21356;SDS011;10836;53.068;18.234;2022-11-15T06:39:05;198.10;;;51.27;;
21356;SDS011;10836;53.068;18.234;2022-11-15T06:41:50;198.17;;;51.30;;
21356;SDS011;10836;53.068;18.234;2022-11-15T06:44:36;216.37;;;53.57;;
21356;SDS011;10836;53.068;18.234;2022-11-15T06:47:22;215.70;;;52.03;;
21356;SDS011;10836;53.068;18.234;2022-11-15T06:50:07;214.07;;;53.70;;
21356;SDS011;10836;53.068;18.234;2022-11-15T06:52:53;218.33;;;53.30;;
21356;SDS011;10836;53.068;18.234;2022-11-15T06:55:39;196.97;;;52.63;;
21356;SDS011;10836;53.068;18.234;2022-11-15T06:58:25;213.97;;;55.10;;
21356;SDS011;10836;53.068;18.234;2022-11-15T07:01:11;236.97;;;55.30;;
21356;SDS011;10836;53.068;18.234;2022-11-15T07:03:57;238.83;;;54.37;;
21356;SDS011;10836;53.068;18.234;2022-11-15T07:06:45;259.50;;;56.40;;
21356;SDS011;10836;53.068;18.234;2022-11-15T07:09:33;208.47;;;51.40;;
21356;SDS011;10836;53.068;18.234;2022-11-15T07:12:18;219.30;;;55.00;;
21356;SDS011;10836;53.068;18.234;2022-11-15T07:15:05;214.93;;;54.23;;
21356;SDS011;10836;53.068;18.234;2022-11-15T07:17:51;202.00;;;51.40;;
21356;SDS011;10836;53.068;18.234;2022-11-15T07:20:37;183.07;;;49.63;;
21356;SDS011;10836;53.068;18.234;2022-11-15T07:23:22;199.13;;;50.57;;
21356;SDS011;10836;53.068;18.234;2022-11-15T07:26:09;197.07;;;49.83;;
21356;SDS011;10836;53.068;18.234;2022-11-15T07:28:55;195.40;;;50.03;;
21356;SDS011;10836;53.068;18.234;2022-11-15T07:31:41;188.83;;;49.47;;
21356;SDS011;10836;53.068;18.234;2022-11-15T07:34:27;206.87;;;50.43;;
21356;SDS011;10836;53.068;18.234;2022-11-15T07:37:13;174.97;;;47.37;;
21356;SDS011;10836;53.068;18.234;2022-11-15T07:39:58;170.27;;;48.37;;
21356;SDS011;10836;53.068;18.234;2022-11-15T07:42:44;155.93;;;46.40;;
21356;SDS011;10836;53.068;18.234;2022-11-15T07:45:43;171.30;;;46.83;;
21356;SDS011;10836;53.068;18.234;2022-11-15T07:48:30;174.10;;;48.87;;
21356;SDS011;10836;53.068;18.234;2022-11-15T07:51:28;178.30;;;48.43;;
21356;SDS011;10836;53.068;18.234;2022-11-15T07:54:15;189.33;;;47.43;;
21356;SDS011;10836;53.068;18.234;2022-11-15T07:57:00;158.27;;;45.93;;
21356;SDS011;10836;53.068;18.234;2022-11-15T07:59:52;171.17;;;46.93;;
21356;SDS011;10836;53.068;18.234;2022-11-15T08:02:37;147.50;;;43.90;;
21356;SDS011;10836;53.068;18.234;2022-11-15T08:05:24;171.50;;;46.90;;
21356;SDS011;10836;53.068;18.234;2022-11-15T08:08:10;185.87;;;49.87;;
21356;SDS011;10836;53.068;18.234;2022-11-15T08:10:57;156.63;;;46.70;;
21356;SDS011;10836;53.068;18.234;2022-11-15T08:13:43;162.83;;;44.77;;
21356;SDS011;10836;53.068;18.234;2022-11-15T08:16:29;153.80;;;44.70;;
21356;SDS011;10836;53.068;18.234;2022-11-15T08:19:15;160.87;;;46.53;;
21356;SDS011;10836;53.068;18.234;2022-11-15T08:22:00;136.10;;;42.67;;
21356;SDS011;10836;53.068;18.234;2022-11-15T08:24:46;146.93;;;42.37;;
21356;SDS011;10836;53.068;18.234;2022-11-15T08:27:32;146.57;;;44.50;;
21356;SDS011;10836;53.068;18.234;2022-11-15T08:30:17;129.27;;;42.93;;
21356;SDS011;10836;53.068;18.234;2022-11-15T08:33:04;134.63;;;43.67;;
21356;SDS011;10836;53.068;18.234;2022-11-15T08:35:49;127.53;;;43.27;;
21356;SDS011;10836;53.068;18.234;2022-11-15T08:38:35;135.77;;;43.07;;
21356;SDS011;10836;53.068;18.234;2022-11-15T08:41:31;128.17;;;42.23;;
21356;SDS011;10836;53.068;18.234;2022-11-15T08:44:20;133.73;;;40.33;;
21356;SDS011;10836;53.068;18.234;2022-11-15T08:47:06;141.33;;;43.47;;
21356;SDS011;10836;53.068;18.234;2022-11-15T08:49:52;141.90;;;43.43;;
21356;SDS011;10836;53.068;18.234;2022-11-15T08:52:37;129.37;;;42.00;;
21356;SDS011;10836;53.068;18.234;2022-11-15T08:55:23;135.87;;;41.83;;
21356;SDS011;10836;53.068;18.234;2022-11-15T08:58:09;127.93;;;39.17;;
21356;SDS011;10836;53.068;18.234;2022-11-15T09:00:55;133.07;;;42.73;;
21356;SDS011;10836;53.068;18.234;2022-11-15T09:03:41;119.93;;;39.67;;
21356;SDS011;10836;53.068;18.234;2022-11-15T09:06:26;113.17;;;37.43;;
21356;SDS011;10836;53.068;18.234;2022-11-15T09:09:12;102.33;;;37.53;;
21356;SDS011;10836;53.068;18.234;2022-11-15T09:11:58;98.20;;;34.20;;
21356;SDS011;10836;53.068;18.234;2022-11-15T09:14:47;106.03;;;38.37;;
21356;SDS011;10836;53.068;18.234;2022-11-15T09:17:33;97.93;;;35.40;;
21356;SDS011;10836;53.068;18.234;2022-11-15T09:20:18;111.87;;;35.73;;
21356;SDS011;10836;53.068;18.234;2022-11-15T09:23:04;101.40;;;34.37;;
21356;SDS011;10836;53.068;18.234;2022-11-15T09:25:51;97.63;;;34.87;;
21356;SDS011;10836;53.068;18.234;2022-11-15T09:28:38;114.87;;;36.93;;
21356;SDS011;10836;53.068;18.234;2022-11-15T09:31:27;120.90;;;38.90;;
21356;SDS011;10836;53.068;18.234;2022-11-15T09:34:15;115.17;;;37.03;;
21356;SDS011;10836;53.068;18.234;2022-11-15T09:37:00;116.17;;;38.30;;
21356;SDS011;10836;53.068;18.234;2022-11-15T09:39:46;120.70;;;39.00;;
21356;SDS011;10836;53.068;18.234;2022-11-15T09:42:44;119.97;;;39.60;;
21356;SDS011;10836;53.068;18.234;2022-11-15T09:45:53;107.30;;;38.77;;
21356;SDS011;10836;53.068;18.234;2022-11-15T09:49:12;106.23;;;37.57;;
21356;SDS011;10836;53.068;18.234;2022-11-15T09:52:06;110.20;;;38.23;;
21356;SDS011;10836;53.068;18.234;2022-11-15T09:54:40;108.70;;;38.13;;
21356;SDS011;10836;53.068;18.234;2022-11-15T09:57:37;110.90;;;37.60;;
21356;SDS011;10836;53.068;18.234;2022-11-15T10:03:16;104.67;;;37.53;;
21356;SDS011;10836;53.068;18.234;2022-11-15T10:05:49;124.30;;;40.17;;
21356;SDS011;10836;53.068;18.234;2022-11-15T10:11:26;111.63;;;39.07;;
21356;SDS011;10836;53.068;18.234;2022-11-15T10:14:25;123.30;;;42.83;;
21356;SDS011;10836;53.068;18.234;2022-11-15T10:20:38;142.40;;;44.53;;
21356;SDS011;10836;53.068;18.234;2022-11-15T10:22:50;147.87;;;44.60;;
21356;SDS011;10836;53.068;18.234;2022-11-15T10:25:23;134.07;;;45.87;;
21356;SDS011;10836;53.068;18.234;2022-11-15T10:27:53;146.13;;;47.43;;
21356;SDS011;10836;53.068;18.234;2022-11-15T10:30:21;149.63;;;48.83;;
21356;SDS011;10836;53.068;18.234;2022-11-15T10:32:49;159.73;;;50.63;;
21356;SDS011;10836;53.068;18.234;2022-11-15T10:35:27;152.83;;;49.77;;
21356;SDS011;10836;53.068;18.234;2022-11-15T10:38:04;160.83;;;51.43;;
21356;SDS011;10836;53.068;18.234;2022-11-15T10:40:33;165.63;;;50.90;;
21356;SDS011;10836;53.068;18.234;2022-11-15T10:45:37;150.90;;;51.33;;
21356;SDS011;10836;53.068;18.234;2022-11-15T10:50:42;151.57;;;48.83;;
21356;SDS011;10836;53.068;18.234;2022-11-15T10:53:21;153.37;;;50.60;;
21356;SDS011;10836;53.068;18.234;2022-11-15T10:55:53;138.93;;;47.73;;
21356;SDS011;10836;53.068;18.234;2022-11-15T11:01:11;140.07;;;48.17;;
21356;SDS011;10836;53.068;18.234;2022-11-15T11:03:42;144.80;;;48.03;;
21356;SDS011;10836;53.068;18.234;2022-11-15T11:06:15;147.57;;;48.20;;
21356;SDS011;10836;53.068;18.234;2022-11-15T11:08:53;138.30;;;47.20;;
21356;SDS011;10836;53.068;18.234;2022-11-15T11:11:22;126.27;;;46.27;;
21356;SDS011;10836;53.068;18.234;2022-11-15T11:13:49;127.23;;;45.40;;
21356;SDS011;10836;53.068;18.234;2022-11-15T11:16:19;133.37;;;47.67;;
21356;SDS011;10836;53.068;18.234;2022-11-15T11:21:54;118.53;;;43.03;;
21356;SDS011;10836;53.068;18.234;2022-11-15T11:30:22;129.13;;;44.53;;
21356;SDS011;10836;53.068;18.234;2022-11-15T11:44:18;129.63;;;44.60;;
21356;SDS011;10836;53.068;18.234;2022-11-15T11:58:06;121.33;;;45.80;;
21356;SDS011;10836;53.068;18.234;2022-11-15T12:00:46;128.53;;;47.77;;
21356;SDS011;10836;53.068;18.234;2022-11-15T12:05:47;123.17;;;44.67;;
21356;SDS011;10836;53.068;18.234;2022-11-15T12:13:47;124.27;;;46.87;;
21356;SDS011;10836;53.068;18.234;2022-11-15T12:16:19;118.43;;;43.80;;
21356;SDS011;10836;53.068;18.234;2022-11-15T12:18:53;123.57;;;45.57;;
21356;SDS011;10836;53.068;18.234;2022-11-15T12:21:29;139.60;;;48.30;;
21356;SDS011;10836;53.068;18.234;2022-11-15T12:27:14;129.67;;;44.67;;
21356;SDS011;10836;53.068;18.234;2022-11-15T12:30:00;135.00;;;48.30;;
21356;SDS011;10836;53.068;18.234;2022-11-15T12:32:35;136.20;;;47.73;;
21356;SDS011;10836;53.068;18.234;2022-11-15T12:35:25;135.97;;;45.80;;
21356;SDS011;10836;53.068;18.234;2022-11-15T12:38:02;125.40;;;45.40;;
21356;SDS011;10836;53.068;18.234;2022-11-15T12:40:34;128.90;;;45.50;;
21356;SDS011;10836;53.068;18.234;2022-11-15T12:43:04;128.37;;;45.17;;
21356;SDS011;10836;53.068;18.234;2022-11-15T12:45:39;119.20;;;45.87;;
21356;SDS011;10836;53.068;18.234;2022-11-15T12:56:37;132.40;;;44.77;;
21356;SDS011;10836;53.068;18.234;2022-11-15T13:04:34;121.70;;;43.03;;
21356;SDS011;10836;53.068;18.234;2022-11-15T13:11:55;133.80;;;46.10;;
21356;SDS011;10836;53.068;18.234;2022-11-15T13:17:26;145.80;;;46.83;;
21356;SDS011;10836;53.068;18.234;2022-11-15T13:22:49;137.20;;;48.50;;
21356;SDS011;10836;53.068;18.234;2022-11-15T13:28:10;140.67;;;47.57;;
21356;SDS011;10836;53.068;18.234;2022-11-15T13:30:50;136.47;;;48.17;;
21356;SDS011;10836;53.068;18.234;2022-11-15T13:36:05;147.13;;;48.53;;
21356;SDS011;10836;53.068;18.234;2022-11-15T13:38:37;155.47;;;49.53;;
21356;SDS011;10836;53.068;18.234;2022-11-15T13:43:50;150.77;;;48.93;;
21356;SDS011;10836;53.068;18.234;2022-11-15T13:46:22;145.77;;;47.07;;
21356;SDS011;10836;53.068;18.234;2022-11-15T13:53:58;144.87;;;49.13;;
21356;SDS011;10836;53.068;18.234;2022-11-15T13:56:37;144.40;;;47.73;;
21356;SDS011;10836;53.068;18.234;2022-11-15T14:01:50;138.43;;;43.53;;
21356;SDS011;10836;53.068;18.234;2022-11-15T14:04:19;150.43;;;45.77;;
21356;SDS011;10836;53.068;18.234;2022-11-15T14:06:49;160.13;;;47.80;;
21356;SDS011;10836;53.068;18.234;2022-11-15T14:14:56;147.53;;;44.30;;
21356;SDS011;10836;53.068;18.234;2022-11-15T14:19:57;144.30;;;46.37;;
21356;SDS011;10836;53.068;18.234;2022-11-15T14:22:28;135.77;;;43.33;;
21356;SDS011;10836;53.068;18.234;2022-11-15T14:30:35;134.97;;;42.57;;
21356;SDS011;10836;53.068;18.234;2022-11-15T14:33:14;134.80;;;41.00;;
21356;SDS011;10836;53.068;18.234;2022-11-15T14:35:44;133.60;;;40.63;;
21356;SDS011;10836;53.068;18.234;2022-11-15T14:38:11;145.37;;;42.90;;
21356;SDS011;10836;53.068;18.234;2022-11-15T14:40:38;137.63;;;38.97;;
21356;SDS011;10836;53.068;18.234;2022-11-15T14:43:08;138.20;;;42.23;;
21356;SDS011;10836;53.068;18.234;2022-11-15T14:45:37;153.47;;;44.30;;
21356;SDS011;10836;53.068;18.234;2022-11-15T14:48:05;149.50;;;45.67;;
21356;SDS011;10836;53.068;18.234;2022-11-15T14:50:32;154.73;;;45.27;;
21356;SDS011;10836;53.068;18.234;2022-11-15T14:53:01;143.33;;;44.70;;
21356;SDS011;10836;53.068;18.234;2022-11-15T14:55:32;142.03;;;44.10;;
21356;SDS011;10836;53.068;18.234;2022-11-15T14:58:03;145.80;;;42.73;;
21356;SDS011;10836;53.068;18.234;2022-11-15T15:00:31;161.00;;;46.20;;
21356;SDS011;10836;53.068;18.234;2022-11-15T15:03:01;168.03;;;44.93;;
21356;SDS011;10836;53.068;18.234;2022-11-15T15:05:39;148.67;;;45.33;;
21356;SDS011;10836;53.068;18.234;2022-11-15T15:08:08;150.77;;;47.77;;
21356;SDS011;10836;53.068;18.234;2022-11-15T15:10:41;175.30;;;49.33;;
21356;SDS011;10836;53.068;18.234;2022-11-15T15:13:15;149.20;;;46.50;;
21356;SDS011;10836;53.068;18.234;2022-11-15T15:15:43;161.23;;;51.50;;
21356;SDS011;10836;53.068;18.234;2022-11-15T15:18:10;162.27;;;48.03;;
21356;SDS011;10836;53.068;18.234;2022-11-15T15:20:38;151.23;;;50.13;;
21356;SDS011;10836;53.068;18.234;2022-11-15T15:23:15;160.47;;;46.27;;
21356;SDS011;10836;53.068;18.234;2022-11-15T15:25:43;161.50;;;45.07;;
21356;SDS011;10836;53.068;18.234;2022-11-15T15:28:12;155.30;;;43.93;;
21356;SDS011;10836;53.068;18.234;2022-11-15T15:30:40;168.67;;;48.37;;
21356;SDS011;10836;53.068;18.234;2022-11-15T15:33:08;166.73;;;53.10;;
21356;SDS011;10836;53.068;18.234;2022-11-15T15:35:35;156.63;;;44.33;;
21356;SDS011;10836;53.068;18.234;2022-11-15T15:38:02;144.13;;;42.87;;
21356;SDS011;10836;53.068;18.234;2022-11-15T15:40:31;150.73;;;42.97;;
21356;SDS011;10836;53.068;18.234;2022-11-15T15:42:59;158.67;;;43.43;;
21356;SDS011;10836;53.068;18.234;2022-11-15T15:45:26;136.40;;;40.30;;
21356;SDS011;10836;53.068;18.234;2022-11-15T15:47:55;138.63;;;44.17;;
21356;SDS011;10836;53.068;18.234;2022-11-15T15:50:23;148.23;;;44.23;;
21356;SDS011;10836;53.068;18.234;2022-11-15T15:52:51;165.63;;;46.47;;
21356;SDS011;10836;53.068;18.234;2022-11-15T15:55:20;165.47;;;48.87;;
21356;SDS011;10836;53.068;18.234;2022-11-15T15:57:48;167.97;;;51.13;;
21356;SDS011;10836;53.068;18.234;2022-11-15T16:00:16;179.00;;;51.93;;
21356;SDS011;10836;53.068;18.234;2022-11-15T16:02:44;158.03;;;46.10;;
21356;SDS011;10836;53.068;18.234;2022-11-15T16:05:11;176.83;;;49.33;;
21356;SDS011;10836;53.068;18.234;2022-11-15T16:07:39;165.47;;;50.60;;
21356;SDS011;10836;53.068;18.234;2022-11-15T16:12:44;179.73;;;51.17;;
21356;SDS011;10836;53.068;18.234;2022-11-15T16:15:11;154.03;;;44.27;;
21356;SDS011;10836;53.068;18.234;2022-11-15T16:17:40;179.70;;;52.63;;
21356;SDS011;10836;53.068;18.234;2022-11-15T16:20:22;172.00;;;51.80;;
21356;SDS011;10836;53.068;18.234;2022-11-15T16:23:05;180.47;;;53.97;;
21356;SDS011;10836;53.068;18.234;2022-11-15T16:28:20;195.77;;;56.13;;
21356;SDS011;10836;53.068;18.234;2022-11-15T16:31:12;199.57;;;61.00;;
21356;SDS011;10836;53.068;18.234;2022-11-15T16:33:40;183.27;;;54.03;;
21356;SDS011;10836;53.068;18.234;2022-11-15T16:36:23;186.83;;;56.80;;
21356;SDS011;10836;53.068;18.234;2022-11-15T16:38:57;161.60;;;46.00;;
21356;SDS011;10836;53.068;18.234;2022-11-15T16:41:24;168.03;;;49.57;;
21356;SDS011;10836;53.068;18.234;2022-11-15T16:43:52;161.07;;;49.03;;
21356;SDS011;10836;53.068;18.234;2022-11-15T16:46:20;180.67;;;51.43;;
21356;SDS011;10836;53.068;18.234;2022-11-15T16:48:48;167.80;;;48.57;;
21356;SDS011;10836;53.068;18.234;2022-11-15T16:51:16;174.47;;;45.07;;
21356;SDS011;10836;53.068;18.234;2022-11-15T16:53:44;183.80;;;51.93;;
21356;SDS011;10836;53.068;18.234;2022-11-15T16:58:47;171.57;;;47.13;;
21356;SDS011;10836;53.068;18.234;2022-11-15T17:01:18;175.40;;;49.70;;
21356;SDS011;10836;53.068;18.234;2022-11-15T17:03:48;169.57;;;50.57;;
21356;SDS011;10836;53.068;18.234;2022-11-15T17:06:15;162.33;;;44.37;;
21356;SDS011;10836;53.068;18.234;2022-11-15T17:08:44;156.90;;;45.17;;
21356;SDS011;10836;53.068;18.234;2022-11-15T17:11:18;151.40;;;45.73;;
21356;SDS011;10836;53.068;18.234;2022-11-15T17:13:47;141.37;;;45.27;;
21356;SDS011;10836;53.068;18.234;2022-11-15T17:16:16;141.60;;;40.27;;
21356;SDS011;10836;53.068;18.234;2022-11-15T17:18:44;133.80;;;44.90;;
21356;SDS011;10836;53.068;18.234;2022-11-15T17:21:15;131.17;;;42.83;;
21356;SDS011;10836;53.068;18.234;2022-11-15T17:23:44;163.30;;;51.97;;
21356;SDS011;10836;53.068;18.234;2022-11-15T17:26:12;165.33;;;47.50;;
21356;SDS011;10836;53.068;18.234;2022-11-15T17:28:55;162.23;;;52.17;;
21356;SDS011;10836;53.068;18.234;2022-11-15T17:31:23;152.83;;;49.70;;
21356;SDS011;10836;53.068;18.234;2022-11-15T17:33:51;149.40;;;46.30;;
21356;SDS011;10836;53.068;18.234;2022-11-15T17:36:18;138.87;;;45.00;;
21356;SDS011;10836;53.068;18.234;2022-11-15T17:38:46;135.20;;;41.93;;
21356;SDS011;10836;53.068;18.234;2022-11-15T17:41:23;145.83;;;47.67;;
21356;SDS011;10836;53.068;18.234;2022-11-15T17:43:51;155.93;;;46.30;;
21356;SDS011;10836;53.068;18.234;2022-11-15T17:46:19;145.90;;;47.50;;
21356;SDS011;10836;53.068;18.234;2022-11-15T17:48:47;143.60;;;44.97;;
21356;SDS011;10836;53.068;18.234;2022-11-15T17:51:15;144.23;;;44.70;;
21356;SDS011;10836;53.068;18.234;2022-11-15T17:53:45;144.93;;;43.77;;
21356;SDS011;10836;53.068;18.234;2022-11-15T17:56:15;149.00;;;45.73;;